Terminal Aerodrome Forecast
Issued by NWS

Home | Current Version | Previous Version | Text Only | Print | Product List | Glossary Off
Versions: 1 2 3 4 5 6 7 8 9 10 11 12 13 14 15 16 17 18 19 20 21

000
FTUS43 KGRB 291431 AAA
TAFAUW
TAF AMD
KAUW 291431Z 2915/3012 36007KT P6SM SCT025 OVC035
      TEMPO 2915/2917 BKN025
     FM291700 05008KT P6SM SCT035 BKN050
     FM292100 09005KT P6SM SCT050=

USA.gov is the U.S. government's official web portal to all federal, state and local government web resources and services.